This is the latest recevied weather packets stored in our database for station/object OM8AKX-12. If no packets are shown the sender has not sent any weather packets the latest 10 day(s).
| Time | Temp. | Humidity | Pressure | Rain* | Wind** | Luminosity | Snow |
|---|---|---|---|---|---|---|---|
| 1778019009 | 12.78° C | 54% | 1005.8 hPa | - | - | - | - |
| 1778018109 | 12.22° C | 54% | 1005.8 hPa | - | - | - | - |
| 1778017209 | 12.22° C | 53% | 1005.9 hPa | - | - | - | - |
| 1778016309 | 12.78° C | 51% | 1005.9 hPa | - | - | - | - |
| 1778015409 | 13.33° C | 48% | 1005.9 hPa | - | - | - | - |
| 1778014509 | 14.44° C | 45% | 1005.8 hPa | - | - | - | - |
| 1778013609 | 15° C | 42% | 1005.7 hPa | - | - | - | - |
| 1778012709 | 15.56° C | 40% | 1005.6 hPa | - | - | - | - |
| 1778011809 | 15.56° C | 38% | 1005.7 hPa | - | - | - | - |
| 1778010909 | 17.22° C | 33% | 1005.5 hPa | - | - | - | - |
| 1778010009 | 18.89° C | 30% | 1005.5 hPa | - | - | - | - |
| 1778009109 | 18.33° C | 31% | 1005.3 hPa | - | - | - | - |
| 1778008208 | 17.78° C | 33% | 1005.3 hPa | - | - | - | - |
| 1778007308 | 18.89° C | 30% | 1005.2 hPa | - | - | - | - |
| 1778006408 | 20° C | 29% | 1005.1 hPa | - | - | - | - |
| 1778005508 | 21.11° C | 24% | 1005 hPa | - | - | - | - |
| 1778004608 | 21.67° C | 24% | 1005 hPa | - | - | - | - |
| 1778003708 | 22.22° C | 23% | 1005 hPa | - | - | - | - |
| 1778002808 | 22.78° C | 22% | 1005 hPa | - | - | - | - |
| 1778001908 | 23.33° C | 21% | 1005 hPa | - | - | - | - |
| 1778001008 | 23.89° C | 21% | 1005 hPa | - | - | - | - |
| 1778000108 | 23.89° C | 21% | 1005 hPa | - | - | - | - |
| 1777999208 | 24.44° C | 20% | 1005.2 hPa | - | - | - | - |
| 1777998308 | 25° C | 19% | 1005.2 hPa | - | - | - | - |
| 1777997408 | 25° C | 19% | 1005.3 hPa | - | - | - | - |
* Rain since midnight (hover to see other rain measurements)
** Current wind speed in m/s (hover to see current wind gust speed)